PILOTS ONLINE: 225    ATC ONLINE: 24

PABI - Allen Army Airfield

Location

IATA BIG
City Delta Junction Ft Greely
Country  United States
Latitude 63° 59' 40" N
Longitude 145° 43' 19" W
Elevation 1291 ft
Type Medium Airport

Runways

01/19 9000 ft / 150 ft
07/25 4679 ft / 164 ft
10/28 6115 ft / 150 ft

Weather

METAR
2014/07/25 08:18
PABI 250818Z AUTO 31009KT 9SM -RA FEW008 SCT012 OVC033 10/08 A2978 RMK AO2 P0000 T01000083 TSNO $
TAF
2014/07/25 06:20
TAF PABI 2506/2612 VRB06KT 9999 VCSH FEW016 BKN030 BKN100 600604 QNH2972INS 
      BECMG 2507/2508 VRB06KT 8000 -RA BR BKN016 BKN030 600604 QNH2975INS 
      BECMG 2516/2517 28009KT 9000 -RA BKN020 BKN030 600505 QNH2968INS 
      BECMG 2602/2603 31009KT 9999 VCSH BKN025 BKN050 QNH2971INS TX19/2601Z TN10/2512Z

Outbound flights

Inbound flights